createdAt,value
2022-11-29T00:01:06.353Z,8.30
2022-11-29T00:03:33.772Z,8.28
2022-11-29T00:06:08.002Z,8.27
2022-11-29T00:08:34.916Z,8.27
2022-11-29T00:11:06.336Z,8.27
2022-11-29T00:13:33.119Z,8.27
2022-11-29T00:16:08.617Z,8.28
2022-11-29T00:18:35.492Z,8.30
2022-11-29T00:21:06.708Z,8.30
2022-11-29T00:23:33.565Z,8.28
2022-11-29T00:26:05.107Z,8.29
2022-11-29T00:28:31.502Z,8.28
2022-11-29T00:30:57.881Z,8.31
2022-11-29T00:33:24.269Z,8.30
2022-11-29T00:35:50.735Z,8.31
2022-11-29T00:38:17.075Z,8.28
2022-11-29T00:40:43.458Z,8.27
2022-11-29T00:43:09.794Z,8.28
2022-11-29T00:45:36.146Z,8.31
2022-11-29T00:48:02.567Z,8.29
2022-11-29T00:50:28.904Z,8.30
2022-11-29T00:52:55.306Z,8.32
2022-11-29T00:55:21.769Z,8.32
2022-11-29T00:57:48.156Z,8.31
2022-11-29T01:00:15.139Z,8.32
2022-11-29T01:02:41.519Z,8.32
2022-11-29T01:05:08.243Z,8.32
2022-11-29T01:07:34.714Z,8.32
2022-11-29T01:10:01.087Z,8.33
2022-11-29T01:12:27.475Z,8.32
2022-11-29T01:14:53.835Z,8.33
2022-11-29T01:17:20.261Z,8.33
2022-11-29T01:19:50.777Z,8.33
2022-11-29T01:22:17.570Z,8.34
2022-11-29T01:24:44.374Z,8.34
2022-11-29T01:27:10.991Z,8.34
2022-11-29T01:29:37.334Z,8.35
2022-11-29T01:32:03.839Z,8.34
2022-11-29T01:34:30.226Z,8.34
2022-11-29T01:36:56.572Z,8.33
2022-11-29T01:39:22.915Z,8.34
2022-11-29T01:41:49.245Z,8.34
2022-11-29T01:44:15.495Z,8.34
2022-11-29T01:46:44.565Z,8.34
2022-11-29T01:49:21.220Z,8.37
2022-11-29T01:51:54.224Z,8.35
2022-11-29T01:54:21.863Z,8.34
2022-11-29T01:56:50.659Z,8.35
2022-11-29T01:59:20.369Z,8.36
2022-11-29T02:01:46.768Z,8.36
2022-11-29T02:04:13.816Z,8.36
2022-11-29T02:06:41.331Z,8.36
2022-11-29T02:09:21.999Z,8.36
2022-11-29T02:12:19.417Z,8.37
2022-11-29T02:14:58.298Z,8.36
2022-11-29T02:18:02.739Z,8.35
2022-11-29T02:20:58.607Z,8.34
2022-11-29T02:24:10.418Z,8.34
2022-11-29T02:27:02.472Z,8.31
2022-11-29T02:29:37.970Z,8.32
2022-11-29T02:32:29.152Z,8.31
2022-11-29T02:35:33.166Z,8.28
2022-11-29T02:38:30.529Z,8.30
2022-11-29T02:41:29.847Z,8.28
2022-11-29T02:44:14.451Z,8.27
2022-11-29T02:47:03.021Z,8.27
2022-11-29T02:49:54.386Z,8.23
2022-11-29T02:52:32.868Z,8.23
2022-11-29T02:55:04.967Z,8.22
2022-11-29T02:57:41.169Z,8.21
2022-11-29T03:00:10.877Z,8.23
2022-11-29T03:03:02.222Z,8.23
2022-11-29T03:05:53.702Z,8.23
2022-11-29T03:08:33.507Z,8.18
2022-11-29T03:11:12.419Z,8.15
2022-11-29T03:13:51.489Z,8.15
2022-11-29T03:16:42.610Z,8.14
2022-11-29T03:19:40.351Z,8.16
2022-11-29T03:22:46.958Z,8.13
2022-11-29T03:25:26.505Z,8.13
2022-11-29T03:28:01.542Z,8.11
2022-11-29T03:30:32.379Z,8.12
2022-11-29T03:33:07.979Z,8.10
2022-11-29T03:35:52.810Z,8.08
2022-11-29T03:38:21.803Z,8.08
2022-11-29T03:40:56.109Z,8.08
2022-11-29T03:43:31.313Z,8.05
2022-11-29T03:46:04.755Z,8.06
2022-11-29T03:48:43.539Z,8.09
2022-11-29T03:51:23.563Z,8.08
2022-11-29T03:54:08.270Z,8.07
2022-11-29T03:56:37.338Z,8.06
2022-11-29T03:59:28.389Z,8.04
2022-11-29T04:02:00.583Z,8.02
2022-11-29T04:04:59.169Z,7.98
2022-11-29T04:07:25.528Z,8.00
2022-11-29T04:10:17.510Z,8.00
2022-11-29T04:13:08.417Z,7.96
2022-11-29T04:16:04.734Z,7.97
2022-11-29T04:18:56.234Z,7.97
2022-11-29T04:21:35.383Z,7.97
2022-11-29T04:24:36.028Z,7.94
2022-11-29T04:27:36.535Z,7.91
2022-11-29T04:30:13.434Z,7.91
2022-11-29T04:33:13.575Z,7.90
2022-11-29T04:36:06.075Z,7.90
2022-11-29T04:38:35.369Z,7.88
2022-11-29T04:41:04.562Z,7.82
2022-11-29T04:44:01.898Z,7.80
2022-11-29T04:46:59.896Z,7.82
2022-11-29T04:50:07.803Z,7.80
2022-11-29T04:52:47.222Z,7.79
2022-11-29T04:55:57.828Z,7.81
2022-11-29T04:58:29.927Z,7.82
2022-11-29T05:01:30.037Z,7.83
2022-11-29T05:04:27.483Z,7.84
2022-11-29T05:07:08.102Z,7.82
2022-11-29T05:09:59.482Z,7.84
2022-11-29T05:12:38.569Z,7.81
2022-11-29T05:15:49.728Z,7.80
2022-11-29T05:18:34.860Z,7.82
2022-11-29T05:21:50.238Z,7.83
2022-11-29T05:24:47.277Z,7.86
2022-11-29T05:27:35.998Z,7.85
2022-11-29T05:30:13.276Z,7.87
2022-11-29T05:32:54.865Z,7.88
2022-11-29T05:35:29.358Z,7.87
2022-11-29T05:38:23.386Z,7.88
2022-11-29T05:41:06.175Z,7.86
2022-11-29T05:43:45.847Z,7.87
2022-11-29T05:46:31.519Z,7.86
2022-11-29T05:49:20.905Z,7.86
2022-11-29T05:52:03.825Z,7.86
2022-11-29T05:54:37.417Z,7.86
2022-11-29T05:57:41.530Z,7.82
2022-11-29T06:00:11.824Z,7.85
2022-11-29T06:03:09.481Z,7.83
2022-11-29T06:05:47.516Z,7.83
2022-11-29T06:08:27.934Z,7.83
2022-11-29T06:11:05.813Z,7.82
2022-11-29T06:13:51.045Z,7.83
2022-11-29T06:17:05.877Z,7.81
2022-11-29T06:19:57.149Z,7.80
2022-11-29T06:22:56.782Z,7.81
2022-11-29T06:25:43.179Z,7.79
2022-11-29T06:29:07.716Z,7.76
2022-11-29T06:31:43.392Z,7.75
2022-11-29T06:34:09.925Z,7.77
2022-11-29T06:36:44.760Z,7.76
2022-11-29T06:39:11.674Z,7.78
2022-11-29T06:41:38.075Z,7.79
2022-11-29T06:44:05.244Z,7.81
2022-11-29T06:46:40.704Z,7.80
2022-11-29T06:49:20.695Z,7.78
2022-11-29T06:52:07.122Z,7.78
2022-11-29T06:54:48.781Z,7.80
2022-11-29T06:57:55.925Z,7.80
2022-11-29T07:00:27.052Z,7.80
2022-11-29T07:03:21.354Z,7.80
2022-11-29T07:05:48.089Z,7.80
2022-11-29T07:08:20.444Z,7.82
2022-11-29T07:10:50.399Z,7.80
2022-11-29T07:13:18.335Z,7.80
2022-11-29T07:16:16.259Z,7.80
2022-11-29T07:19:33.807Z,7.80
2022-11-29T07:22:31.754Z,7.81
2022-11-29T07:25:22.926Z,7.83
2022-11-29T07:28:19.343Z,7.83
2022-11-29T07:31:06.196Z,7.84
2022-11-29T07:33:38.570Z,7.84
2022-11-29T07:36:29.939Z,7.86
2022-11-29T07:39:04.326Z,7.84
2022-11-29T07:42:03.027Z,7.85
2022-11-29T07:44:50.924Z,7.83
2022-11-29T07:47:17.528Z,7.83
2022-11-29T07:49:43.874Z,7.82
2022-11-29T07:52:14.973Z,7.80
2022-11-29T07:54:41.724Z,7.81
2022-11-29T07:57:08.445Z,7.82
2022-11-29T07:59:35.982Z,7.80
2022-11-29T08:02:04.666Z,7.79
2022-11-29T08:04:35.170Z,7.77
2022-11-29T08:07:01.547Z,7.78
2022-11-29T08:09:27.913Z,7.78
2022-11-29T08:11:54.267Z,7.79
2022-11-29T08:14:20.625Z,7.79
2022-11-29T08:16:46.978Z,7.77
2022-11-29T08:19:13.401Z,7.76
2022-11-29T08:21:42.886Z,7.76
2022-11-29T08:24:09.302Z,7.75
2022-11-29T08:26:35.633Z,7.75
2022-11-29T08:29:02.115Z,7.74
2022-11-29T08:31:28.469Z,7.73
2022-11-29T08:33:54.895Z,7.73
2022-11-29T08:36:21.293Z,7.76
2022-11-29T08:38:48.194Z,7.75
2022-11-29T08:41:16.022Z,7.76
2022-11-29T08:43:43.490Z,7.76
2022-11-29T08:46:15.144Z,7.77
2022-11-29T08:48:44.644Z,7.78
2022-11-29T08:51:11.011Z,7.78
2022-11-29T08:53:43.343Z,7.78
2022-11-29T08:59:03.466Z,7.76
2022-11-29T09:01:29.887Z,7.75
2022-11-29T09:04:07.117Z,7.78
2022-11-29T09:06:41.603Z,7.79
2022-11-29T09:09:07.969Z,7.79
2022-11-29T09:11:35.547Z,7.81
2022-11-29T09:14:06.559Z,7.82
2022-11-29T09:16:35.398Z,7.85
2022-11-29T09:19:02.107Z,7.86
2022-11-29T09:21:30.935Z,7.86
2022-11-29T09:23:59.975Z,7.89
2022-11-29T09:26:32.456Z,7.90
2022-11-29T09:29:03.654Z,7.90
2022-11-29T09:31:33.591Z,7.90
2022-11-29T09:34:00.022Z,7.91
2022-11-29T09:36:29.425Z,7.90
2022-11-29T09:38:57.126Z,7.89
2022-11-29T09:41:37.426Z,7.91
2022-11-29T09:44:16.891Z,7.93
2022-11-29T09:46:50.491Z,7.95
2022-11-29T09:49:55.172Z,7.97
2022-11-29T09:52:46.606Z,7.97
2022-11-29T09:55:35.767Z,8.00
2022-11-29T09:58:05.735Z,8.02
2022-11-29T10:00:37.949Z,8.02
2022-11-29T10:03:23.291Z,8.03
2022-11-29T10:05:56.185Z,8.04
2022-11-29T10:08:26.352Z,8.04
2022-11-29T10:10:58.461Z,8.05
2022-11-29T10:13:35.833Z,8.08
2022-11-29T10:16:14.250Z,8.08
2022-11-29T10:18:48.972Z,8.09
2022-11-29T10:21:24.038Z,8.11
2022-11-29T10:23:57.544Z,8.13
2022-11-29T10:26:25.879Z,8.14
2022-11-29T10:28:57.498Z,8.15
2022-11-29T10:31:27.552Z,8.16
2022-11-29T10:33:55.803Z,8.19
2022-11-29T10:36:29.173Z,8.21
2022-11-29T10:38:59.434Z,8.21
2022-11-29T10:41:27.023Z,8.23
2022-11-29T10:43:56.730Z,8.22
2022-11-29T10:46:34.616Z,8.22
2022-11-29T10:49:04.550Z,8.22
2022-11-29T10:51:31.893Z,8.26
2022-11-29T10:54:27.055Z,8.26
2022-11-29T10:56:56.246Z,8.25
2022-11-29T10:59:25.428Z,8.25
2022-11-29T11:01:52.046Z,8.26
2022-11-29T11:04:31.223Z,8.28
2022-11-29T11:07:04.206Z,8.32
2022-11-29T11:09:34.133Z,8.34
2022-11-29T11:12:03.865Z,8.37
2022-11-29T11:14:37.769Z,8.45
2022-11-29T11:17:32.963Z,8.46
2022-11-29T11:20:20.205Z,8.45
2022-11-29T11:23:20.809Z,8.48
2022-11-29T11:25:50.074Z,8.48
2022-11-29T11:28:26.070Z,8.50
2022-11-29T11:30:57.330Z,8.47
2022-11-29T11:33:36.340Z,8.48
2022-11-29T11:36:20.523Z,8.50
2022-11-29T11:38:53.852Z,8.51
2022-11-29T11:41:45.940Z,8.52
2022-11-29T11:44:48.276Z,8.51
2022-11-29T11:47:24.311Z,8.53
2022-11-29T11:49:56.521Z,8.54
2022-11-29T11:52:30.239Z,8.57
2022-11-29T11:55:07.304Z,8.57
2022-11-29T11:57:34.129Z,8.57
2022-11-29T12:00:06.358Z,8.59
2022-11-29T12:02:40.325Z,8.60
2022-11-29T12:05:15.387Z,8.59
2022-11-29T12:08:07.454Z,8.60
2022-11-29T12:10:34.850Z,8.60
2022-11-29T12:13:02.363Z,8.63
2022-11-29T12:15:34.536Z,8.65
2022-11-29T12:18:12.354Z,8.65
2022-11-29T12:20:56.953Z,8.61
2022-11-29T12:23:32.659Z,8.54
2022-11-29T12:26:06.236Z,8.59
2022-11-29T12:28:38.444Z,8.62
2022-11-29T12:31:24.486Z,8.64
2022-11-29T12:34:23.422Z,8.67
2022-11-29T12:36:52.691Z,8.68
2022-11-29T12:39:45.418Z,8.71
2022-11-29T12:42:30.558Z,8.71
2022-11-29T12:45:19.366Z,8.73
2022-11-29T12:48:14.574Z,8.75
2022-11-29T12:51:09.339Z,8.79
2022-11-29T12:54:33.195Z,8.82
2022-11-29T12:57:15.923Z,8.82
2022-11-29T13:00:14.185Z,8.83
2022-11-29T13:03:16.704Z,8.84
2022-11-29T13:06:03.041Z,8.82
2022-11-29T13:08:40.171Z,8.84
2022-11-29T13:11:22.015Z,8.86
2022-11-29T13:14:34.768Z,8.85
2022-11-29T13:17:00.028Z,8.85
2022-11-29T13:19:55.087Z,8.85
2022-11-29T13:22:58.020Z,8.86
2022-11-29T13:25:35.713Z,8.88
2022-11-29T13:28:07.374Z,8.88
2022-11-29T13:30:35.003Z,8.90
2022-11-29T13:33:16.381Z,8.91
2022-11-29T13:35:56.910Z,8.93
2022-11-29T13:38:30.600Z,8.93
2022-11-29T13:41:06.470Z,8.94
2022-11-29T13:43:54.228Z,8.93
2022-11-29T13:46:35.820Z,8.96
2022-11-29T13:49:02.407Z,8.98
2022-11-29T13:51:28.704Z,9.00
2022-11-29T13:53:56.827Z,9.00
2022-11-29T13:56:46.507Z,9.01
2022-11-29T13:59:31.257Z,9.01
2022-11-29T14:01:59.143Z,9.00
2022-11-29T14:04:34.456Z,8.99
2022-11-29T14:07:08.054Z,8.98
2022-11-29T14:09:45.586Z,8.99
2022-11-29T14:12:47.483Z,8.96
2022-11-29T14:15:24.295Z,8.93
2022-11-29T14:18:08.594Z,8.93
2022-11-29T14:20:43.996Z,8.92
2022-11-29T14:23:15.982Z,8.88
2022-11-29T14:26:05.606Z,8.85
2022-11-29T14:28:38.632Z,8.80
2022-11-29T14:31:06.645Z,8.78
2022-11-29T14:34:00.342Z,8.74
2022-11-29T14:36:50.131Z,8.66
2022-11-29T14:39:58.647Z,8.60
2022-11-29T14:42:26.653Z,8.52
2022-11-29T14:45:01.011Z,8.47
2022-11-29T14:47:31.389Z,8.42
2022-11-29T14:50:01.440Z,8.40
2022-11-29T14:52:39.121Z,8.36
2022-11-29T14:55:14.372Z,8.33
2022-11-29T14:57:51.223Z,8.29
2022-11-29T15:01:09.677Z,8.27
2022-11-29T15:03:47.590Z,8.21
2022-11-29T15:06:25.152Z,8.19
2022-11-29T15:09:03.407Z,8.16
2022-11-29T15:11:52.876Z,8.12
2022-11-29T15:14:42.500Z,8.08
2022-11-29T15:17:14.803Z,8.03
2022-11-29T15:20:07.743Z,8.00
2022-11-29T15:22:56.434Z,7.97
2022-11-29T15:25:26.335Z,7.92
2022-11-29T15:27:55.043Z,7.89
2022-11-29T15:30:28.170Z,7.84
2022-11-29T15:32:54.916Z,7.82
2022-11-29T15:35:21.514Z,7.76
2022-11-29T15:37:53.133Z,7.74
2022-11-29T15:40:27.517Z,7.72
2022-11-29T15:43:13.847Z,7.68
2022-11-29T15:45:45.791Z,7.65
2022-11-29T15:48:13.801Z,7.62
2022-11-29T15:50:49.808Z,7.62
2022-11-29T15:53:39.657Z,7.64
2022-11-29T15:56:14.966Z,7.66
2022-11-29T15:58:43.055Z,7.70
2022-11-29T16:01:21.512Z,7.72
2022-11-29T16:03:52.156Z,7.77
2022-11-29T16:06:42.134Z,7.81
2022-11-29T16:09:25.379Z,7.84
2022-11-29T16:11:51.938Z,7.87
2022-11-29T16:14:28.872Z,7.89
2022-11-29T16:17:00.713Z,7.90
2022-11-29T16:19:32.860Z,7.93
2022-11-29T16:22:02.112Z,7.94
2022-11-29T16:24:34.123Z,7.94
2022-11-29T16:27:04.605Z,7.97
2022-11-29T16:29:36.840Z,7.98
2022-11-29T16:32:24.448Z,8.00
2022-11-29T16:35:22.170Z,8.02
2022-11-29T16:37:48.996Z,8.02
2022-11-29T16:40:31.164Z,8.03
2022-11-29T16:43:20.444Z,8.02
2022-11-29T16:45:47.053Z,8.02
2022-11-29T16:48:22.579Z,8.01
2022-11-29T16:51:11.441Z,8.02
2022-11-29T16:53:42.113Z,8.02
2022-11-29T16:56:11.417Z,8.03
2022-11-29T16:59:17.092Z,8.01
2022-11-29T17:01:28.269Z,8.01
2022-11-29T17:03:57.338Z,8.02
2022-11-29T17:06:24.916Z,8.02
2022-11-29T17:08:52.404Z,8.04
2022-11-29T17:11:18.755Z,8.03
2022-11-29T17:13:46.541Z,8.04
2022-11-29T17:16:18.945Z,8.04
2022-11-29T17:18:50.127Z,8.03
2022-11-29T17:21:20.908Z,8.03
2022-11-29T17:23:47.404Z,8.03
2022-11-29T17:26:15.368Z,8.04
2022-11-29T17:28:47.218Z,8.04
2022-11-29T17:31:19.905Z,8.05
2022-11-29T17:33:46.646Z,8.05
2022-11-29T17:36:16.610Z,8.05
2022-11-29T17:38:44.640Z,8.06
2022-11-29T17:41:13.698Z,8.05
2022-11-29T17:43:40.558Z,8.07
2022-11-29T17:46:27.214Z,8.06
2022-11-29T17:48:54.693Z,8.06
2022-11-29T17:51:50.748Z,8.07
2022-11-29T17:54:10.171Z,8.06
2022-11-29T17:56:36.594Z,8.06
2022-11-29T17:59:04.460Z,8.05
2022-11-29T18:01:33.250Z,8.06
2022-11-29T18:04:01.839Z,8.05
2022-11-29T18:06:40.096Z,8.06
2022-11-29T18:09:08.980Z,8.05
2022-11-29T18:11:45.268Z,8.06
2022-11-29T18:14:16.974Z,8.06
2022-11-29T18:16:45.567Z,8.05
2022-11-29T18:19:14.510Z,8.07
2022-11-29T18:21:42.121Z,8.05
2022-11-29T18:24:10.928Z,8.06
2022-11-29T18:26:37.956Z,8.07
2022-11-29T18:29:15.850Z,8.07
2022-11-29T18:31:52.518Z,8.08
2022-11-29T18:34:19.957Z,8.08
2022-11-29T18:36:48.705Z,8.09
2022-11-29T18:39:20.107Z,8.08
2022-11-29T18:41:48.664Z,8.08
2022-11-29T18:44:24.210Z,8.10
2022-11-29T18:46:50.668Z,8.09
2022-11-29T18:49:18.089Z,8.09
2022-11-29T18:51:45.907Z,8.10
2022-11-29T18:54:13.746Z,8.11
2022-11-29T18:56:40.526Z,8.11
2022-11-29T18:59:17.701Z,8.11
2022-11-29T19:01:56.655Z,8.11
2022-11-29T19:04:23.463Z,8.12
2022-11-29T19:06:49.929Z,8.11
2022-11-29T19:09:19.707Z,8.12
2022-11-29T19:11:46.077Z,8.12
2022-11-29T19:14:13.116Z,8.13
2022-11-29T19:16:43.902Z,8.15
2022-11-29T19:19:10.997Z,8.14
2022-11-29T19:21:39.650Z,8.15
2022-11-29T19:24:13.470Z,8.16
2022-11-29T19:26:40.836Z,8.17
2022-11-29T19:29:07.246Z,8.17
2022-11-29T19:31:33.653Z,8.18
2022-11-29T19:34:36.177Z,8.19
2022-11-29T19:37:02.557Z,8.19
2022-11-29T19:39:34.014Z,8.18
2022-11-29T19:42:12.772Z,8.17
2022-11-29T19:45:15.431Z,8.18
2022-11-29T19:47:32.492Z,8.18
2022-11-29T19:50:02.481Z,8.17
2022-11-29T19:52:31.437Z,8.18
2022-11-29T19:54:59.881Z,8.18
2022-11-29T19:57:26.320Z,8.18
2022-11-29T19:59:54.775Z,8.17
2022-11-29T20:02:26.287Z,8.18
2022-11-29T20:05:31.952Z,8.19
2022-11-29T20:07:59.758Z,8.19
2022-11-29T20:10:27.579Z,8.17
2022-11-29T20:12:58.166Z,8.18
2022-11-29T20:15:24.888Z,8.18
2022-11-29T20:17:58.622Z,8.18
2022-11-29T20:20:25.171Z,8.19
2022-11-29T20:22:52.338Z,8.19
2022-11-29T20:25:18.861Z,8.19
2022-11-29T20:27:45.405Z,8.19
2022-11-29T20:30:12.494Z,8.18
2022-11-29T20:32:39.075Z,8.18
2022-11-29T20:35:06.136Z,8.17
2022-11-29T20:37:51.814Z,8.17
2022-11-29T20:40:37.116Z,8.16
2022-11-29T20:43:51.990Z,8.17
2022-11-29T20:46:18.782Z,8.17
2022-11-29T20:48:46.776Z,8.16
2022-11-29T20:51:31.928Z,8.16
2022-11-29T20:53:58.981Z,8.18
2022-11-29T20:56:29.457Z,8.19
2022-11-29T20:59:04.142Z,8.17
2022-11-29T21:01:41.979Z,8.18
2022-11-29T21:04:08.511Z,8.18
2022-11-29T21:06:38.768Z,8.19
2022-11-29T21:09:08.689Z,8.18
2022-11-29T21:11:35.339Z,8.18
2022-11-29T21:14:03.953Z,8.19
2022-11-29T21:16:31.620Z,8.18
2022-11-29T21:19:00.864Z,8.19
2022-11-29T21:21:56.717Z,8.20
2022-11-29T21:24:29.078Z,8.20
2022-11-29T21:26:55.647Z,8.20
2022-11-29T21:29:23.539Z,8.20
2022-11-29T21:31:54.584Z,8.20
2022-11-29T21:34:21.619Z,8.19
2022-11-29T21:36:55.887Z,8.18
2022-11-29T21:39:28.426Z,8.19
2022-11-29T21:41:54.938Z,8.18
2022-11-29T21:44:28.428Z,8.18
2022-11-29T21:46:56.896Z,8.19
2022-11-29T21:49:24.473Z,8.20
2022-11-29T21:51:52.917Z,8.20
2022-11-29T21:54:19.279Z,8.19
2022-11-29T21:56:58.411Z,8.19
2022-11-29T21:59:24.940Z,8.20
2022-11-29T22:01:57.453Z,8.20
2022-11-29T22:04:26.143Z,8.19
2022-11-29T22:06:53.633Z,8.20
2022-11-29T22:09:24.219Z,8.23
2022-11-29T22:11:50.703Z,8.23
2022-11-29T22:14:18.456Z,8.23
2022-11-29T22:17:00.831Z,8.23
2022-11-29T22:19:32.547Z,8.24
2022-11-29T22:22:14.332Z,8.22
2022-11-29T22:24:41.797Z,8.21
2022-11-29T22:27:17.702Z,8.20
2022-11-29T22:29:44.510Z,8.20
2022-11-29T22:32:16.179Z,8.21
2022-11-29T22:34:42.600Z,8.22
2022-11-29T22:37:13.078Z,8.22
2022-11-29T22:39:41.474Z,8.22
2022-11-29T22:42:12.028Z,8.22
2022-11-29T22:44:40.509Z,8.21
2022-11-29T22:47:20.075Z,8.22
2022-11-29T22:49:50.023Z,8.21
2022-11-29T22:52:16.407Z,8.21
2022-11-29T22:54:42.796Z,8.21
2022-11-29T22:57:14.354Z,8.22
2022-11-29T22:59:41.875Z,8.21
2022-11-29T23:02:08.317Z,8.19
2022-11-29T23:04:44.096Z,8.18
2022-11-29T23:07:25.097Z,8.19
2022-11-29T23:10:00.554Z,8.17
2022-11-29T23:12:35.217Z,8.17
2022-11-29T23:15:02.729Z,8.17
2022-11-29T23:17:32.199Z,8.16
2022-11-29T23:20:03.914Z,8.15
2022-11-29T23:22:32.479Z,8.12
2022-11-29T23:24:59.977Z,8.11
2022-11-29T23:27:29.556Z,8.08
2022-11-29T23:29:55.930Z,8.09
2022-11-29T23:32:22.419Z,8.08
2022-11-29T23:34:49.291Z,8.07
2022-11-29T23:37:16.795Z,8.06
2022-11-29T23:39:45.187Z,8.04
2022-11-29T23:42:11.568Z,8.03
2022-11-29T23:44:39.015Z,8.02
2022-11-29T23:47:05.496Z,7.98
2022-11-29T23:49:35.305Z,7.97
2022-11-29T23:52:05.710Z,7.94
2022-11-29T23:54:36.450Z,7.93
2022-11-29T23:57:10.926Z,7.93
2022-11-29T23:59:39.425Z,7.92
